Time,TemperatureF,DewpointF,PressureIn,WindDirection,WindDirectionDegrees,WindSpeedMPH,WindSpeedGustMPH,Humidity,HourlyPrecipIn,Conditions,Clouds,dailyrainin,SolarRadiationWatts/m^2,SoftwareType,DateUTC
2013-06-19 00:03:00,65.8,46.0,29.89,East,94,6.0,20.0,50,0.00,,,0.00,0,weatherlink.com 1.10,2013-06-19 08:03:00,
2013-06-19 00:18:00,65.6,47.0,29.89,NE,53,9.0,14.0,51,0.00,,,0.00,0,weatherlink.com 1.10,2013-06-19 08:18:00,
2013-06-19 00:33:00,66.0,47.0,29.89,ESE,112,1.0,7.0,50,0.00,,,0.00,0,weatherlink.com 1.10,2013-06-19 08:33:00,
2013-06-19 00:48:00,64.8,47.0,29.89,ESE,117,1.0,7.0,53,0.00,,,0.00,0,weatherlink.com 1.10,2013-06-19 08:48:00,
2013-06-19 01:03:00,63.9,48.0,29.90,ESE,117,3.0,8.0,56,0.00,,,0.00,0,weatherlink.com 1.10,2013-06-19 09:03:00,
2013-06-19 01:18:00,63.9,47.0,29.90,ESE,117,0.0,7.0,55,0.00,,,0.00,0,weatherlink.com 1.10,2013-06-19 09:18:00,
2013-06-19 01:34:00,64.1,47.0,29.90,ESE,117,4.0,5.0,55,0.00,,,0.00,0,weatherlink.com 1.10,2013-06-19 09:34:00,
2013-06-19 01:49:00,65.3,48.0,29.91,West,271,2.0,6.0,54,0.00,,,0.00,0,weatherlink.com 1.10,2013-06-19 09:49:00,
2013-06-19 02:04:00,64.2,47.0,29.91,NNE,26,6.0,6.0,54,0.00,,,0.00,0,weatherlink.com 1.10,2013-06-19 10:04:00,
2013-06-19 02:19:00,64.3,48.0,29.92,North,355,1.0,4.0,55,0.00,,,0.00,0,weatherlink.com 1.10,2013-06-19 10:19:00,
2013-06-19 02:34:00,64.5,48.0,29.92,North,355,0.0,2.0,55,0.00,,,0.00,0,weatherlink.com 1.10,2013-06-19 10:34:00,
2013-06-19 02:49:00,64.4,48.0,29.92,North,355,2.0,2.0,55,0.00,,,0.00,0,weatherlink.com 1.10,2013-06-19 10:49:00,
2013-06-19 03:04:00,64.3,48.0,29.92,North,355,0.0,4.0,55,0.00,,,0.00,0,weatherlink.com 1.10,2013-06-19 11:04:00,
2013-06-19 03:19:00,62.0,50.0,29.93,SSE,163,0.0,15.0,64,0.00,,,0.00,0,weatherlink.com 1.10,2013-06-19 11:19:00,
2013-06-19 03:34:00,61.6,48.0,29.93,SSW,213,8.0,20.0,61,0.00,,,0.00,0,weatherlink.com 1.10,2013-06-19 11:34:00,
2013-06-19 03:49:00,60.8,48.0,29.93,SW,219,6.0,14.0,62,0.00,,,0.00,0,weatherlink.com 1.10,2013-06-19 11:49:00,
2013-06-19 04:04:00,60.2,48.0,29.93,SSW,205,4.0,8.0,64,0.00,,,0.00,0,weatherlink.com 1.10,2013-06-19 12:04:00,
2013-06-19 04:19:00,59.7,48.0,29.93,SSW,202,1.0,5.0,66,0.00,,,0.00,0,weatherlink.com 1.10,2013-06-19 12:19:00,
2013-06-19 04:34:00,59.4,48.0,29.92,SSW,199,0.0,4.0,66,0.00,,,0.00,5,weatherlink.com 1.10,2013-06-19 12:34:00,
2013-06-19 04:49:00,59.7,48.0,29.92,SSW,196,1.0,4.0,66,0.00,,,0.00,7,weatherlink.com 1.10,2013-06-19 12:49:00,
2013-06-19 05:04:00,59.6,48.0,29.92,South,191,1.0,3.0,66,0.00,,,0.00,9,weatherlink.com 1.10,2013-06-19 13:04:00,
2013-06-19 05:19:00,59.8,48.0,29.92,NE,34,5.0,5.0,66,0.00,,,0.00,12,weatherlink.com 1.10,2013-06-19 13:19:00,
2013-06-19 05:34:00,59.3,48.0,29.92,North,355,5.0,6.0,67,0.00,,,0.00,18,weatherlink.com 1.10,2013-06-19 13:34:00,
2013-06-19 05:49:00,60.4,50.0,29.91,North,350,4.0,7.0,69,0.00,,,0.00,25,weatherlink.com 1.10,2013-06-19 13:49:00,
2013-06-19 06:04:00,59.5,49.0,29.92,North,355,4.0,7.0,69,0.00,,,0.00,30,weatherlink.com 1.10,2013-06-19 14:04:00,
2013-06-19 06:19:00,60.0,49.0,29.92,North,349,6.0,7.0,67,0.00,,,0.00,132,weatherlink.com 1.10,2013-06-19 14:19:00,
2013-06-19 06:34:00,59.9,49.0,29.93,NNE,17,4.0,6.0,67,0.00,,,0.00,151,weatherlink.com 1.10,2013-06-19 14:34:00,
2013-06-19 06:49:00,61.7,49.0,29.92,NNE,17,1.0,4.0,64,0.00,,,0.00,202,weatherlink.com 1.10,2013-06-19 14:49:00,
2013-06-19 07:04:00,64.2,51.0,29.91,NNW,337,3.0,6.0,62,0.00,,,0.00,246,weatherlink.com 1.10,2013-06-19 15:04:00,
2013-06-19 07:19:00,63.8,49.0,29.92,North,5,1.0,4.0,60,0.00,,,0.00,258,weatherlink.com 1.10,2013-06-19 15:19:00,
2013-06-19 07:34:00,64.1,49.0,29.92,NNW,346,4.0,5.0,59,0.00,,,0.00,54,weatherlink.com 1.10,2013-06-19 15:34:00,
2013-06-19 07:49:00,64.3,49.0,29.91,NW,325,0.0,6.0,59,0.00,,,0.00,186,weatherlink.com 1.10,2013-06-19 15:49:00,
2013-06-19 08:04:00,64.0,48.0,29.91,NE,49,2.0,5.0,57,0.00,,,0.00,392,weatherlink.com 1.10,2013-06-19 16:04:00,
2013-06-19 08:19:00,65.0,48.0,29.91,North,360,2.0,4.0,55,0.00,,,0.00,318,weatherlink.com 1.10,2013-06-19 16:19:00,
2013-06-19 08:34:00,65.3,49.0,29.91,WSW,255,1.0,5.0,55,0.00,,,0.00,476,weatherlink.com 1.10,2013-06-19 16:34:00,
2013-06-19 08:49:00,64.6,52.0,29.90,WSW,243,6.0,8.0,63,0.00,,,0.00,93,weatherlink.com 1.10,2013-06-19 16:49:00,
2013-06-19 09:04:00,62.1,51.0,29.91,SW,226,2.0,8.0,67,0.00,,,0.00,139,weatherlink.com 1.10,2013-06-19 17:04:00,
2013-06-19 09:19:00,62.7,51.0,29.91,SW,225,1.0,4.0,65,0.00,,,0.00,169,weatherlink.com 1.10,2013-06-19 17:19:00,
2013-06-19 09:34:00,63.5,51.0,29.91,SW,230,3.0,6.0,65,0.00,,,0.00,169,weatherlink.com 1.10,2013-06-19 17:34:00,
2013-06-19 09:49:00,62.7,51.0,29.91,SSW,209,2.0,7.0,66,0.00,,,0.00,116,weatherlink.com 1.10,2013-06-19 17:49:00,
2013-06-19 10:04:00,63.1,52.0,29.90,WSW,244,7.0,7.0,68,0.00,,,0.00,113,weatherlink.com 1.10,2013-06-19 18:04:00,
2013-06-19 10:19:00,63.7,52.0,29.90,WSW,248,5.0,6.0,65,0.00,,,0.00,209,weatherlink.com 1.10,2013-06-19 18:19:00,
2013-06-19 10:34:00,64.6,52.0,29.91,WSW,244,1.0,5.0,64,0.00,,,0.00,213,weatherlink.com 1.10,2013-06-19 18:34:00,
2013-06-19 10:49:00,65.6,52.0,29.91,SW,223,4.0,7.0,62,0.00,,,0.00,294,weatherlink.com 1.10,2013-06-19 18:49:00,
2013-06-19 11:04:00,66.8,50.0,29.91,WSW,238,4.0,7.0,56,0.00,,,0.00,761,weatherlink.com 1.10,2013-06-19 19:04:00,
2013-06-19 11:19:00,66.9,50.0,29.90,SW,221,6.0,9.0,54,0.00,,,0.00,202,weatherlink.com 1.10,2013-06-19 19:19:00,
2013-06-19 11:34:00,67.0,49.0,29.90,WSW,248,8.0,9.0,53,0.00,,,0.00,863,weatherlink.com 1.10,2013-06-19 19:34:00,
2013-06-19 11:49:00,67.5,49.0,29.89,West,263,6.0,12.0,51,0.00,,,0.00,833,weatherlink.com 1.10,2013-06-19 19:49:00,
2013-06-19 12:04:00,70.5,50.0,29.89,WSW,255,9.0,12.0,48,0.00,,,0.00,432,weatherlink.com 1.10,2013-06-19 20:04:00,
2013-06-19 12:19:00,69.0,50.0,29.90,SW,214,12.0,14.0,51,0.00,,,0.00,751,weatherlink.com 1.10,2013-06-19 20:19:00,
2013-06-19 12:34:00,68.0,50.0,29.90,SW,219,1.0,11.0,52,0.00,,,0.00,603,weatherlink.com 1.10,2013-06-19 20:34:00,
2013-06-19 12:49:00,69.7,51.0,29.90,WSW,255,10.0,12.0,52,0.00,,,0.00,255,weatherlink.com 1.10,2013-06-19 20:49:00,
2013-06-19 13:04:00,71.0,50.0,29.90,WSW,252,4.0,7.0,48,0.00,,,0.00,162,weatherlink.com 1.10,2013-06-19 21:04:00,
2013-06-19 13:19:00,71.4,51.0,29.90,SW,236,9.0,11.0,49,0.00,,,0.00,172,weatherlink.com 1.10,2013-06-19 21:19:00,
2013-06-19 13:34:00,68.4,49.0,29.90,SW,225,5.0,13.0,51,0.00,,,0.00,294,weatherlink.com 1.10,2013-06-19 21:34:00,
2013-06-19 13:49:00,70.4,50.0,29.91,ENE,66,7.0,12.0,49,0.00,,,0.00,153,weatherlink.com 1.10,2013-06-19 21:49:00,
2013-06-19 14:04:00,71.4,45.0,29.89,North,5,20.0,20.0,39,0.00,,,0.00,190,weatherlink.com 1.10,2013-06-19 22:04:00,
2013-06-19 14:19:00,71.0,45.0,29.90,NNE,19,14.0,16.0,40,0.00,,,0.00,120,weatherlink.com 1.10,2013-06-19 22:19:00,
2013-06-19 14:34:00,71.0,45.0,29.90,NE,48,15.0,19.0,40,0.00,,,0.00,137,weatherlink.com 1.10,2013-06-19 22:34:00,
2013-06-19 14:49:00,70.9,46.0,29.91,NNE,16,3.0,20.0,41,0.00,,,0.00,227,weatherlink.com 1.10,2013-06-19 22:49:00,
2013-06-19 15:04:00,71.2,46.0,29.89,NNE,30,8.0,22.0,40,0.00,,,0.00,236,weatherlink.com 1.10,2013-06-19 23:04:00,
2013-06-19 15:19:00,71.6,45.0,29.91,NE,53,7.0,19.0,39,0.00,,,0.00,230,weatherlink.com 1.10,2013-06-19 23:19:00,
2013-06-19 15:34:00,73.4,46.0,29.91,NE,39,8.0,13.0,38,0.00,,,0.00,281,weatherlink.com 1.10,2013-06-19 23:34:00,
2013-06-19 15:49:00,71.7,49.0,29.91,ESE,113,4.0,18.0,44,0.00,,,0.00,536,weatherlink.com 1.10,2013-06-19 23:49:00,
2013-06-19 16:04:00,70.8,50.0,29.91,ESE,118,4.0,16.0,48,0.00,,,0.00,257,weatherlink.com 1.10,2013-06-20 00:04:00,
2013-06-19 16:19:00,71.5,51.0,29.91,ESE,105,8.0,19.0,48,0.00,,,0.00,186,weatherlink.com 1.10,2013-06-20 00:19:00,
2013-06-19 16:34:00,72.4,47.0,29.91,ESE,117,5.0,20.0,41,0.00,,,0.00,221,weatherlink.com 1.10,2013-06-20 00:34:00,
2013-06-19 16:49:00,72.3,48.0,29.92,East,87,6.0,13.0,43,0.00,,,0.00,726,weatherlink.com 1.10,2013-06-20 00:49:00,
2013-06-19 17:35:00,69.7,50.0,29.92,ESE,117,9.0,15.0,49,0.00,,,0.00,605,weatherlink.com 1.10,2013-06-20 01:35:00,
2013-06-19 17:50:00,71.1,50.0,29.92,ESE,116,2.0,22.0,47,0.00,,,0.00,137,weatherlink.com 1.10,2013-06-20 01:50:00,
2013-06-19 18:05:00,69.3,49.0,29.92,East,100,2.0,12.0,49,0.00,,,0.00,178,weatherlink.com 1.10,2013-06-20 02:05:00,
2013-06-19 18:20:00,69.2,49.0,29.93,ESE,115,5.0,11.0,49,0.00,,,0.00,149,weatherlink.com 1.10,2013-06-20 02:20:00,
2013-06-19 18:35:00,70.0,50.0,29.93,ESE,106,5.0,11.0,49,0.00,,,0.00,283,weatherlink.com 1.10,2013-06-20 02:35:00,
2013-06-19 18:50:00,69.6,49.0,29.93,ESE,120,1.0,12.0,48,0.00,,,0.00,388,weatherlink.com 1.10,2013-06-20 02:50:00,
2013-06-19 19:05:00,70.1,48.0,29.94,ESE,109,1.0,13.0,45,0.00,,,0.00,174,weatherlink.com 1.10,2013-06-20 03:05:00,
2013-06-19 19:20:00,68.7,49.0,29.94,ESE,103,1.0,12.0,50,0.00,,,0.00,257,weatherlink.com 1.10,2013-06-20 03:20:00,
2013-06-19 19:35:00,69.5,49.0,29.94,ESE,102,0.0,13.0,49,0.00,,,0.00,320,weatherlink.com 1.10,2013-06-20 03:35:00,
2013-06-19 19:50:00,69.4,49.0,29.94,SSE,154,11.0,15.0,49,0.00,,,0.00,230,weatherlink.com 1.10,2013-06-20 03:50:00,
2013-06-19 20:05:00,68.1,49.0,29.94,SE,146,4.0,15.0,50,0.00,,,0.00,116,weatherlink.com 1.10,2013-06-20 04:05:00,
2013-06-19 20:20:00,68.0,50.0,29.94,ESE,113,0.0,19.0,52,0.00,,,0.00,158,weatherlink.com 1.10,2013-06-20 04:20:00,
2013-06-19 20:35:00,68.0,49.0,29.94,ESE,109,2.0,15.0,50,0.00,,,0.00,139,weatherlink.com 1.10,2013-06-20 04:35:00,
2013-06-19 20:50:00,67.8,49.0,29.95,East,100,4.0,16.0,51,0.00,,,0.00,153,weatherlink.com 1.10,2013-06-20 04:50:00,
2013-06-19 21:05:00,68.2,49.0,29.95,East,90,8.0,16.0,50,0.00,,,0.00,172,weatherlink.com 1.10,2013-06-20 05:05:00,
2013-06-19 21:20:00,68.0,49.0,29.96,East,96,10.0,19.0,50,0.00,,,0.00,134,weatherlink.com 1.10,2013-06-20 05:20:00,
2013-06-19 21:35:00,67.7,49.0,29.95,ESE,111,2.0,18.0,51,0.00,,,0.00,118,weatherlink.com 1.10,2013-06-20 05:35:00,
2013-06-19 21:50:00,66.9,49.0,29.96,ESE,110,5.0,21.0,53,0.00,,,0.00,90,weatherlink.com 1.10,2013-06-20 05:50:00,
2013-06-19 22:05:00,66.5,49.0,29.96,ESE,123,2.0,10.0,53,0.00,,,0.00,42,weatherlink.com 1.10,2013-06-20 06:05:00,
2013-06-19 22:20:00,65.8,49.0,29.96,SE,132,2.0,8.0,55,0.00,,,0.00,30,weatherlink.com 1.10,2013-06-20 06:20:00,
2013-06-19 22:35:00,65.4,49.0,29.96,ESE,117,1.0,11.0,56,0.00,,,0.00,28,weatherlink.com 1.10,2013-06-20 06:35:00,
2013-06-19 22:50:00,65.1,49.0,29.96,ESE,109,0.0,13.0,57,0.00,,,0.00,14,weatherlink.com 1.10,2013-06-20 06:50:00,
2013-06-19 23:05:00,64.9,49.0,29.95,ESE,113,6.0,18.0,56,0.00,,,0.00,9,weatherlink.com 1.10,2013-06-20 07:05:00,
2013-06-19 23:20:00,64.8,49.0,29.95,ESE,111,1.0,15.0,56,0.00,,,0.00,5,weatherlink.com 1.10,2013-06-20 07:20:00,
2013-06-19 23:35:00,64.5,48.0,29.96,East,88,12.0,12.0,56,0.00,,,0.00,5,weatherlink.com 1.10,2013-06-20 07:35:00,
2013-06-19 23:50:00,64.2,48.0,29.96,ESE,104,3.0,12.0,57,0.00,,,0.00,0,weatherlink.com 1.10,2013-06-20 07:50:00,